Time;durP1;ratioP1;P1;durP2;ratioP2;P2;SDS_P1;SDS_P2;PMS_P1;PMS_P2;Temp;Humidity;BMP_temperature;BMP_pressure;BME280_temperature;BME280_humidity;BME280_pressure;Samples;Min_cycle;Max_cycle;Signal;HPM_P1;HPM_P2
2023/03/21 00:02:32;;;;;;;;;;;;;;;9.65;96.33;101699.72;20509400;28;20037;-59
2023/03/21 00:12:57;;;;;;;;;;;;;;;9.63;96.56;101693.72;20512118;28;19962;-58
2023/03/21 00:23:18;;;;;;;;;;;;;;;9.66;96.09;101692.84;20518318;28;19933;-59
2023/03/21 00:33:40;;;;;;;;;;;;;;;9.70;95.87;101684.19;20521081;28;19922;-58
2023/03/21 00:44:02;;;;;;;;;;;;;;;9.68;96.12;101670.44;20528145;28;19930;-59
2023/03/21 00:54:24;;;;;;;;;;;;;;;9.69;96.12;101647.16;20522348;28;19930;-58
2023/03/21 01:04:46;;;;;;;;;;;;;;;9.67;96.53;101638.56;20538786;28;19933;-58
2023/03/21 01:15:07;;;;;;;;;;;;;;;9.71;97.12;101635.06;20527252;28;19926;-59
2023/03/21 01:25:29;;;;;;;;;;;;;;;9.75;97.72;101631.56;20527199;28;19926;-58
2023/03/21 01:35:50;;;;;;;;;;;;;;;9.79;97.17;101624.63;20520081;28;19930;-58
2023/03/21 01:46:26;;;;;;;;;;;;;;;9.79;97.92;101622.03;20523764;28;19961;-59
2023/03/21 01:56:53;;;;;;;;;;;;;;;9.83;97.50;101610.78;20541044;28;19937;-58
2023/03/21 02:07:16;;;;;;;;;;;;;;;9.84;97.03;101600.41;20519426;28;20314;-59
2023/03/21 02:17:44;;;;;;;;;;;;;;;9.86;97.86;101588.31;20539130;28;20333;-59
2023/03/21 02:28:22;;;;;;;;;;;;;;;9.89;96.93;101590.00;20533333;28;19922;-58
2023/03/21 02:38:51;;;;;;;;;;;;;;;9.88;98.10;101572.78;20526563;28;20426;-59
2023/03/21 02:49:37;;;;;;;;;;;;;;;9.89;98.00;101564.16;20534227;28;19969;-59
2023/03/21 02:59:58;;;;;;;;;;;;;;;9.91;97.82;101570.16;20518420;28;19926;-58
2023/03/21 03:10:40;;;;;;;;;;;;;;;9.86;97.41;101557.31;20520455;28;20004;-59
2023/03/21 03:21:10;;;;;;;;;;;;;;;9.92;98.02;101551.19;20516563;28;19930;-59
2023/03/21 03:31:36;;;;;;;;;;;;;;;9.93;98.99;101558.06;20531164;28;19930;-59
2023/03/21 03:42:01;;;;;;;;;;;;;;;9.97;99.03;101549.38;20522007;28;19926;-59
2023/03/21 03:52:41;;;;;;;;;;;;;;;9.97;98.10;101552.81;20497953;28;20017;-58
2023/03/21 04:03:17;;;;;;;;;;;;;;;9.98;99.18;101551.94;20523048;28;20028;-57
2023/03/21 04:13:39;;;;;;;;;;;;;;;10.02;99.40;101547.56;20518379;28;20448;-58
2023/03/21 04:24:00;;;;;;;;;;;;;;;10.07;98.27;101532.84;20525384;28;19968;-58
2023/03/21 04:34:22;;;;;;;;;;;;;;;10.06;99.50;101529.41;20504894;28;20333;-59
2023/03/21 04:44:45;;;;;;;;;;;;;;;10.12;98.96;101523.31;20513673;28;19956;-58
2023/03/21 04:55:08;;;;;;;;;;;;;;;10.15;99.02;101512.91;20500100;28;19926;-58
2023/03/21 05:05:30;;;;;;;;;;;;;;;10.15;99.02;101507.72;20522460;28;19926;-59
2023/03/21 05:15:51;;;;;;;;;;;;;;;10.20;97.45;101511.09;20515272;28;20267;-59
2023/03/21 05:26:13;;;;;;;;;;;;;;;10.16;97.95;101504.28;20528406;28;20366;-58
2023/03/21 05:36:34;;;;;;;;;;;;;;;10.21;99.06;101507.63;20524085;28;19977;-58
2023/03/21 05:46:56;;;;;;;;;;;;;;;10.26;99.04;101495.47;20528703;28;19932;-58
2023/03/21 05:57:18;;;;;;;;;;;;;;;10.33;97.84;101486.72;20540019;28;19926;-58
2023/03/21 06:07:39;;;;;;;;;;;;;;;10.32;97.72;101485.00;20511878;28;19934;-58
2023/03/21 06:18:02;;;;;;;;;;;;;;;10.35;97.92;101484.94;20510095;28;19965;-58
2023/03/21 06:28:23;;;;;;;;;;;;;;;10.35;96.56;101487.53;20527621;28;20378;-58
2023/03/21 06:38:45;;;;;;;;;;;;;;;10.31;97.16;101488.47;20523853;28;19922;-58
2023/03/21 06:49:07;;;;;;;;;;;;;;;10.32;97.23;101487.59;20519210;28;19922;-58
2023/03/21 06:59:30;;;;;;;;;;;;;;;10.33;98.06;101491.88;20521792;28;19922;-59
2023/03/21 07:09:51;;;;;;;;;;;;;;;10.38;99.21;101490.09;20509563;28;20378;-59
2023/03/21 07:20:12;;;;;;;;;;;;;;;10.41;97.53;101492.59;20525020;28;19965;-58
2023/03/21 07:30:35;;;;;;;;;;;;;;;10.49;97.34;101488.16;20518657;28;19933;-58
2023/03/21 07:40:57;;;;;;;;;;;;;;;10.51;97.79;101494.13;20502931;28;19932;-58
2023/03/21 07:51:19;;;;;;;;;;;;;;;10.58;97.96;101494.88;20525959;28;20353;-58
2023/03/21 08:01:40;;;;;;;;;;;;;;;10.57;97.56;101481.06;20515484;28;19925;-58
2023/03/21 08:12:02;;;;;;;;;;;;;;;10.63;97.21;101490.47;20516518;28;19930;-58
2023/03/21 08:22:24;;;;;;;;;;;;;;;10.72;95.41;101474.75;20513548;28;19929;-57
2023/03/21 08:32:46;;;;;;;;;;;;;;;10.76;95.19;101482.44;20512107;28;19980;-58
2023/03/21 08:43:07;;;;;;;;;;;;;;;10.75;96.95;101475.53;20513490;28;19970;-58
2023/03/21 08:53:29;;;;;;;;;;;;;;;10.74;95.64;101473.84;20533375;28;20359;-59
2023/03/21 09:03:50;;;;;;;;;;;;;;;10.73;96.88;101473.88;20530983;28;19930;-59
2023/03/21 09:14:12;;;;;;;;;;;;;;;10.74;96.81;101473.84;20542094;28;19923;-59
2023/03/21 09:24:33;;;;;;;;;;;;;;;10.83;95.93;101473.66;20517572;28;19925;-57
2023/03/21 09:34:56;;;;;;;;;;;;;;;10.89;97.31;101465.75;20531972;28;19989;-58
2023/03/21 09:45:20;;;;;;;;;;;;;;;10.95;96.30;101473.38;20535109;28;20322;-57
2023/03/21 09:55:43;;;;;;;;;;;;;;;10.95;96.23;101465.59;20513529;28;19925;-58
2023/03/21 10:06:14;;;;;;;;;;;;;;;11.02;98.49;101466.34;20531154;28;19980;-58
2023/03/21 10:16:47;;;;;;;;;;;;;;;11.06;97.46;101455.88;20519726;28;19957;-57
2023/03/21 10:27:12;;;;;;;;;;;;;;;11.01;96.27;101452.53;20537909;28;20376;-59
2023/03/21 10:37:35;;;;;;;;;;;;;;;11.09;96.21;101445.47;20543599;28;19953;-58
2023/03/21 10:47:56;;;;;;;;;;;;;;;11.21;95.59;101446.09;20523440;28;19950;-58
2023/03/21 10:58:26;;;;;;;;;;;;;;;11.35;98.74;101437.09;20516644;28;20013;-57
2023/03/21 11:08:54;;;;;;;;;;;;;;;11.45;95.94;101419.56;20520348;28;19925;-59
2023/03/21 11:19:17;;;;;;;;;;;;;;;11.59;94.75;101414.94;20505563;28;19973;-58
2023/03/21 11:29:40;;;;;;;;;;;;;;;11.63;94.96;101409.59;20516568;28;19922;-58
2023/03/21 11:40:22;;;;;;;;;;;;;;;11.69;93.68;101399.13;20528844;28;20274;-59
2023/03/21 11:50:46;;;;;;;;;;;;;;;11.68;95.16;101399.19;20505619;28;20602;-58
2023/03/21 12:01:08;;;;;;;;;;;;;;;11.67;94.97;101387.09;20515700;28;20039;-58
2023/03/21 12:11:30;;;;;;;;;;;;;;;11.62;93.86;101381.13;20509383;28;20356;-57
2023/03/21 12:21:54;;;;;;;;;;;;;;;11.55;95.56;101371.81;20514403;28;19938;-57
2023/03/21 12:32:35;;;;;;;;;;;;;;;11.51;94.88;101359.81;20525784;28;19930;-58
2023/03/21 12:43:06;;;;;;;;;;;;;;;11.55;94.58;101356.28;20538865;28;19926;-58
2023/03/21 12:53:34;;;;;;;;;;;;;;;11.59;95.76;101350.94;20524327;28;19926;-58
2023/03/21 13:04:16;;;;;;;;;;;;;;;11.70;94.63;101324.81;20534843;28;19934;-58
2023/03/21 13:14:43;;;;;;;;;;;;;;;11.73;94.13;101309.16;20527695;28;20009;-58
2023/03/21 13:25:06;;;;;;;;;;;;;;;11.68;95.02;101300.66;20552999;28;19922;-59
2023/03/21 13:35:36;;;;;;;;;;;;;;;11.77;93.80;101274.47;20532175;28;19922;-59
2023/03/21 13:46:33;;;;;;;;;;;;;;;11.81;92.44;101286.47;20523484;28;19958;-57
2023/03/21 13:57:33;;;;;;;;;;;;;;;11.88;92.85;101267.25;20530600;28;19930;-58
2023/03/21 14:07:56;;;;;;;;;;;;;;;11.90;94.58;101239.53;20516987;28;19923;-57
2023/03/21 14:18:38;;;;;;;;;;;;;;;11.94;92.20;101230.75;20523257;28;19925;-58
2023/03/21 14:29:23;;;;;;;;;;;;;;;11.91;92.47;101220.47;20523816;28;19981;-58
2023/03/21 14:39:55;;;;;;;;;;;;;;;11.95;91.69;101224.69;20529290;28;19933;-59
2023/03/21 14:50:18;;;;;;;;;;;;;;;11.96;93.00;101213.41;20523197;28;20013;-59
2023/03/21 15:00:40;;;;;;;;;;;;;;;11.95;92.13;101212.56;20517878;28;19929;-58
2023/03/21 15:11:06;;;;;;;;;;;;;;;11.99;92.45;101197.78;20511182;28;19926;-59
2023/03/21 15:21:31;;;;;;;;;;;;;;;12.10;92.59;101180.97;20526090;28;19965;-59
2023/03/21 15:31:52;;;;;;;;;;;;;;;12.16;91.79;101172.16;20518299;28;19930;-58
2023/03/21 15:42:32;;;;;;;;;;;;;;;12.22;90.29;101163.31;20519565;28;20363;-60
2023/03/21 15:52:55;;;;;;;;;;;;;;;12.27;91.48;101146.72;20522319;28;19985;-60
2023/03/21 16:03:19;;;;;;;;;;;;;;;12.39;90.35;101133.38;20513538;28;19925;-58
2023/03/21 16:13:41;;;;;;;;;;;;;;;12.45;89.92;101133.19;20508059;28;19930;-59
2023/03/21 16:24:03;;;;;;;;;;;;;;;12.58;89.23;101129.25;20507556;28;19926;-60
2023/03/21 16:34:25;;;;;;;;;;;;;;;12.53;88.74;101141.53;20524961;28;19933;-58
2023/03/21 16:44:47;;;;;;;;;;;;;;;12.58;88.44;101131.84;20511278;28;20079;-58
2023/03/21 16:55:08;;;;;;;;;;;;;;;12.56;88.46;101132.81;20508349;28;20374;-58
2023/03/21 17:05:30;;;;;;;;;;;;;;;12.47;88.88;101123.56;20523479;28;19952;-59
2023/03/21 17:15:51;;;;;;;;;;;;;;;12.46;88.08;101127.06;20533131;28;19926;-57
2023/03/21 17:26:33;;;;;;;;;;;;;;;12.45;87.53;101124.53;20536980;28;19974;-60
2023/03/21 17:36:54;;;;;;;;;;;;;;;12.40;88.02;101116.88;20526141;28;19926;-58
2023/03/21 17:47:16;;;;;;;;;;;;;;;12.31;88.90;101127.56;20515894;28;19926;-58
2023/03/21 17:57:37;;;;;;;;;;;;;;;12.33;87.87;101124.91;20522972;28;20357;-59
2023/03/21 18:07:59;;;;;;;;;;;;;;;12.32;87.79;101134.47;20526061;28;19981;-60
2023/03/21 18:18:36;;;;;;;;;;;;;;;12.30;88.01;101141.44;20528331;28;19929;-59
2023/03/21 18:28:58;;;;;;;;;;;;;;;12.31;87.58;101135.34;20533700;28;19922;-59
2023/03/21 18:39:41;;;;;;;;;;;;;;;12.31;88.14;101143.13;20533639;28;19926;-59
2023/03/21 18:50:07;;;;;;;;;;;;;;;12.33;88.01;101162.09;20534458;28;19922;-60
2023/03/21 19:00:36;;;;;;;;;;;;;;;12.35;87.80;101155.13;20518211;28;19946;-58
2023/03/21 19:10:58;;;;;;;;;;;;;;;12.31;87.18;101166.50;20543423;28;19922;-60
2023/03/21 19:21:26;;;;;;;;;;;;;;;12.21;88.27;101154.72;20519200;28;19954;-59
2023/03/21 19:31:49;;;;;;;;;;;;;;;12.09;88.07;101139.53;20520930;28;20364;-59
2023/03/21 19:42:11;;;;;;;;;;;;;;;12.01;88.72;101142.34;20522654;28;19930;-59
2023/03/21 19:52:37;;;;;;;;;;;;;;;11.91;89.62;101137.50;20516958;28;20024;-59
2023/03/21 20:02:59;;;;;;;;;;;;;;;11.85;89.62;101135.94;20532428;28;19922;-60
2023/03/21 20:13:20;;;;;;;;;;;;;;;11.78;89.62;101136.16;20521343;28;19926;-58
2023/03/21 20:23:42;;;;;;;;;;;;;;;11.75;90.62;101121.56;20525450;28;19922;-59
2023/03/21 20:34:04;;;;;;;;;;;;;;;11.76;90.90;101127.56;20519695;28;19929;-59
2023/03/21 20:44:26;;;;;;;;;;;;;;;11.69;90.10;101123.47;20528413;28;19940;-59
2023/03/21 20:55:10;;;;;;;;;;;;;;;11.66;91.44;101118.41;20515148;28;20235;-59
2023/03/21 21:05:32;;;;;;;;;;;;;;;11.66;90.58;101102.84;20535694;28;19958;-59
2023/03/21 21:15:55;;;;;;;;;;;;;;;11.70;89.38;101100.09;20523642;28;19926;-58
2023/03/21 21:26:16;;;;;;;;;;;;;;;11.67;89.25;101092.44;20533719;28;20288;-57
2023/03/21 21:36:38;;;;;;;;;;;;;;;11.69;88.79;101087.19;20525008;28;19933;-59
2023/03/21 21:47:02;;;;;;;;;;;;;;;11.74;88.34;101078.38;20525735;28;19976;-59
2023/03/21 21:57:24;;;;;;;;;;;;;;;11.65;87.22;101067.44;20509740;28;19926;-59
2023/03/21 22:07:46;;;;;;;;;;;;;;;11.57;87.83;101069.41;20532100;28;19926;-58
2023/03/21 22:18:08;;;;;;;;;;;;;;;11.57;87.71;101084.94;20534400;28;19929;-60
2023/03/21 22:28:30;;;;;;;;;;;;;;;11.60;87.43;101070.16;20524186;28;20013;-59
2023/03/21 22:38:51;;;;;;;;;;;;;;;11.59;87.13;101057.25;20523038;28;19949;-60
2023/03/21 22:49:13;;;;;;;;;;;;;;;11.54;88.32;101044.41;20528355;28;19922;-60
2023/03/21 22:59:34;;;;;;;;;;;;;;;11.45;87.71;101038.66;20534031;28;19977;-60
2023/03/21 23:09:56;;;;;;;;;;;;;;;11.36;87.80;101042.38;20525082;28;19928;-58
2023/03/21 23:20:17;;;;;;;;;;;;;;;11.23;88.23;101041.03;20520216;28;19930;-60
2023/03/21 23:30:39;;;;;;;;;;;;;;;11.11;89.00;101037.03;20507009;28;19958;-59
2023/03/21 23:41:05;;;;;;;;;;;;;;;10.98;89.17;101022.78;20520372;28;19922;-59
2023/03/21 23:51:26;;;;;;;;;;;;;;;10.95;88.84;101006.50;20524653;28;19922;-59
